KAVC

Mecklenburg-Brunswick Regional Airport

South Hill, Virginia, USA
METAR KAVC 162235Z AUTO 00000KT 10SM CLR 07/01 A3023 RMK AO2 T00690009
Observed Flight Rules
Jan-16 @ 22:35 UTC (15 minutes ago) Visual Flight Rules
Visibility Clouds
10 miles
  • Clear skies
Temperatures Readings
Current 7°C / 45°F
Dewpoint 1°C / 34°F
Humidity 66%
Altimeter 30.23" Hg
Pressure 1023.72 hPa
Elevation 135
METAR KAVC 162235Z AUTO 00000KT 10SM CLR 07/01 A3023 RMK AO2 T00690009
Observed Flight Rules
Jan-16 @ 22:35 UTC
(15 minutes ago)
VFR
Clouds
  • Clear skies
Temperature Dewpoint
7°C / 45°F 1°C / 34°F
Humidity Altimeter Pressure
66% 30.23" Hg 1023.72 hPa